createdAt,value
2023-05-09T00:00:48.515Z,10.47
2023-05-09T00:01:51.799Z,28.39
2023-05-09T00:02:55.115Z,15.59
2023-05-09T00:03:58.403Z,33.51
2023-05-09T00:05:01.687Z,94.95
2023-05-09T00:06:04.100Z,94.95
2023-05-09T00:07:07.331Z,56.55
2023-05-09T00:08:10.567Z,48.87
2023-05-09T00:09:13.899Z,151.27
2023-05-09T00:10:17.194Z,112.87
2023-05-09T00:11:20.456Z,141.03
2023-05-09T00:12:23.764Z,97.51
2023-05-09T00:13:27.100Z,66.79
2023-05-09T00:14:30.328Z,43.75
2023-05-09T00:15:33.628Z,110.31
2023-05-09T00:16:36.928Z,133.35
2023-05-09T00:17:40.210Z,174.31
2023-05-09T00:18:43.503Z,176.87
2023-05-09T00:19:45.795Z,228.07
2023-05-09T00:20:49.131Z,115.43
2023-05-09T00:21:52.398Z,74.47
2023-05-09T00:22:55.683Z,199.91
2023-05-09T00:23:58.978Z,169.19
2023-05-09T00:25:01.292Z,217.83
2023-05-09T00:26:04.572Z,-322.33
2023-05-09T00:27:07.878Z,289.51
2023-05-09T00:28:11.176Z,233.19
2023-05-09T00:29:14.466Z,148.71
2023-05-09T00:30:17.764Z,123.11
2023-05-09T00:31:21.072Z,151.27
2023-05-09T00:32:24.371Z,233.19
2023-05-09T00:33:27.709Z,207.59
2023-05-09T00:34:30.945Z,279.27
2023-05-09T00:35:34.216Z,222.95
2023-05-09T00:36:37.505Z,125.67
2023-05-09T00:37:40.898Z,94.95
2023-05-09T00:38:43.098Z,79.59
2023-05-09T00:39:46.389Z,133.35
2023-05-09T00:40:49.717Z,158.95
2023-05-09T00:41:52.967Z,128.23
2023-05-09T00:42:56.288Z,130.79
2023-05-09T00:43:59.566Z,151.27
2023-05-09T00:45:02.897Z,276.71
2023-05-09T00:46:06.141Z,153.83
2023-05-09T00:47:09.809Z,141.03
2023-05-09T00:48:13.141Z,120.55
2023-05-09T00:49:16.416Z,120.55
2023-05-09T00:50:19.674Z,79.59
2023-05-09T00:51:22.990Z,77.03
2023-05-09T00:52:25.288Z,174.31
2023-05-09T00:53:28.585Z,135.91
2023-05-09T00:54:31.866Z,120.55
2023-05-09T00:55:35.164Z,146.15
2023-05-09T00:56:38.438Z,115.43
2023-05-09T00:57:41.753Z,74.47
2023-05-09T00:58:45.048Z,115.43
2023-05-09T00:59:48.333Z,69.35
2023-05-09T01:00:51.669Z,164.07
2023-05-09T01:01:54.939Z,225.51
2023-05-09T01:02:58.212Z,171.75
2023-05-09T01:04:01.522Z,161.51
2023-05-09T01:05:04.788Z,120.55
2023-05-09T01:06:07.113Z,133.35
2023-05-09T01:07:10.391Z,194.79
2023-05-09T01:08:13.680Z,87.27
2023-05-09T01:09:16.977Z,125.67
2023-05-09T01:10:20.263Z,48.87
2023-05-09T01:11:23.557Z,281.83
2023-05-09T01:12:26.835Z,179.43
2023-05-09T01:13:30.139Z,148.71
2023-05-09T01:14:33.429Z,138.47
2023-05-09T01:15:36.757Z,117.99
2023-05-09T01:16:40.028Z,194.79
2023-05-09T01:17:43.316Z,128.23
2023-05-09T01:18:46.612Z,210.15
2023-05-09T01:19:48.909Z,135.91
2023-05-09T01:20:52.220Z,94.95
2023-05-09T01:21:55.527Z,64.23
2023-05-09T01:22:58.788Z,77.03
2023-05-09T01:24:02.072Z,71.91
2023-05-09T01:25:05.414Z,74.47
2023-05-09T01:26:08.656Z,79.59
2023-05-09T01:27:11.962Z,77.03
2023-05-09T01:28:15.238Z,115.43
2023-05-09T01:29:18.545Z,59.11
2023-05-09T01:30:21.837Z,82.15
2023-05-09T01:31:25.138Z,51.43
2023-05-09T01:32:28.413Z,146.15
2023-05-09T01:33:30.707Z,105.19
2023-05-09T01:34:34.002Z,77.03
2023-05-09T01:35:37.315Z,151.27
2023-05-09T01:36:40.588Z,107.75
2023-05-09T01:37:43.889Z,148.71
2023-05-09T01:38:47.176Z,156.39
2023-05-09T01:39:50.469Z,0
2023-05-09T01:40:53.775Z,59.11
2023-05-09T01:41:57.060Z,143.59
2023-05-09T01:43:00.468Z,112.87
2023-05-09T01:44:03.638Z,135.91
2023-05-09T01:45:07.221Z,194.79
2023-05-09T01:46:10.505Z,240.87
2023-05-09T01:47:12.868Z,189.67
2023-05-09T01:49:19.403Z,66.79
2023-05-09T01:50:22.696Z,240.87
2023-05-09T01:51:26.022Z,220.39
2023-05-09T01:52:29.336Z,123.11
2023-05-09T01:53:32.561Z,240.87
2023-05-09T01:54:35.873Z,297.19
2023-05-09T01:55:39.149Z,286.95
2023-05-09T01:56:42.440Z,240.87
2023-05-09T01:57:45.765Z,-317.21
2023-05-09T01:58:49.124Z,222.95
2023-05-09T01:59:52.357Z,-309.53
2023-05-09T02:00:54.631Z,202.47
2023-05-09T02:01:57.930Z,199.91
2023-05-09T02:03:01.194Z,176.87
2023-05-09T02:04:04.549Z,100.07
2023-05-09T02:05:07.778Z,161.51
2023-05-09T02:06:11.080Z,215.27
2023-05-09T02:07:14.375Z,189.67
2023-05-09T02:08:17.674Z,146.15
2023-05-09T02:09:20.953Z,128.23
2023-05-09T02:10:24.257Z,148.71
2023-05-09T02:11:27.572Z,146.15
2023-05-09T02:12:30.828Z,158.95
2023-05-09T02:13:34.126Z,115.43
2023-05-09T02:14:36.486Z,97.51
2023-05-09T02:15:39.718Z,115.43
2023-05-09T02:16:43.021Z,130.79
2023-05-09T02:17:46.318Z,100.07
2023-05-09T02:18:49.607Z,128.23
2023-05-09T02:19:52.950Z,107.75
2023-05-09T02:20:56.204Z,105.19
2023-05-09T02:21:59.471Z,184.55
2023-05-09T02:23:02.765Z,220.39
2023-05-09T02:24:06.208Z,240.87
2023-05-09T02:25:09.333Z,202.47
2023-05-09T02:26:12.632Z,197.35
2023-05-09T02:27:15.924Z,181.99
2023-05-09T02:28:18.248Z,166.63
2023-05-09T02:29:21.539Z,115.43
2023-05-09T02:30:24.816Z,115.43
2023-05-09T02:31:28.132Z,125.67
2023-05-09T02:32:31.426Z,41.35
2023-05-09T02:33:34.696Z,176.87
2023-05-09T02:34:38.113Z,158.95
2023-05-09T02:35:41.293Z,0
2023-05-09T02:36:44.612Z,135.91
2023-05-09T02:37:47.864Z,169.19
2023-05-09T02:38:51.179Z,110.31
2023-05-09T02:39:54.453Z,125.67
2023-05-09T02:40:57.760Z,133.35
2023-05-09T02:42:00.068Z,117.99
2023-05-09T02:43:03.347Z,107.75
2023-05-09T02:44:06.683Z,100.07
2023-05-09T02:45:09.953Z,97.51
2023-05-09T02:46:13.232Z,74.47
2023-05-09T02:47:16.505Z,77.03
2023-05-09T02:48:19.823Z,56.55
2023-05-09T02:49:23.098Z,53.99
2023-05-09T02:50:26.415Z,30.95
2023-05-09T02:51:29.706Z,69.35
2023-05-09T02:52:33.007Z,84.71
2023-05-09T02:53:36.268Z,89.83
2023-05-09T02:54:39.599Z,123.11
2023-05-09T02:55:41.874Z,97.51
2023-05-09T02:56:45.176Z,94.95
2023-05-09T02:57:48.474Z,53.99
2023-05-09T02:58:51.744Z,84.71
2023-05-09T02:59:55.033Z,79.59
2023-05-09T03:00:58.357Z,79.59
2023-05-09T03:02:01.623Z,38.63
2023-05-09T03:03:04.955Z,30.95
2023-05-09T03:04:08.212Z,112.87
2023-05-09T03:05:11.496Z,184.55
2023-05-09T03:06:14.781Z,171.75
2023-05-09T03:07:18.075Z,156.39
2023-05-09T03:08:21.381Z,117.99
2023-05-09T03:09:23.684Z,102.63
2023-05-09T03:10:26.972Z,153.83
2023-05-09T03:11:30.262Z,69.35
2023-05-09T03:12:33.570Z,253.67
2023-05-09T03:13:36.849Z,128.23
2023-05-09T03:14:40.132Z,194.79
2023-05-09T03:15:43.448Z,115.43
2023-05-09T03:16:46.727Z,123.11
2023-05-09T03:17:50.014Z,202.47
2023-05-09T03:18:53.309Z,120.55
2023-05-09T03:19:56.646Z,176.87
2023-05-09T03:20:59.898Z,74.47
2023-05-09T03:22:03.200Z,210.15
2023-05-09T03:23:05.591Z,94.95
2023-05-09T03:24:08.794Z,128.23
2023-05-09T03:25:12.069Z,164.07
2023-05-09T03:26:15.372Z,123.11
2023-05-09T03:27:18.662Z,128.23
2023-05-09T03:28:21.949Z,107.75
2023-05-09T03:29:25.274Z,158.95
2023-05-09T03:30:28.541Z,164.07
2023-05-09T03:31:31.851Z,120.55
2023-05-09T03:32:35.141Z,117.99
2023-05-09T03:33:38.410Z,194.79
2023-05-09T03:34:41.745Z,235.75
2023-05-09T03:35:44.998Z,110.31
2023-05-09T03:36:47.315Z,304.87
2023-05-09T03:38:53.891Z,312.55
2023-05-09T03:39:57.177Z,210.15
2023-05-09T03:41:00.480Z,248.55
2023-05-09T03:42:03.760Z,197.35
2023-05-09T03:44:10.359Z,251.11
2023-05-09T03:45:13.646Z,222.95
2023-05-09T03:46:16.938Z,271.59
2023-05-09T03:47:20.226Z,-324.89
2023-05-09T03:48:23.530Z,325.35
2023-05-09T03:49:26.833Z,276.71
2023-05-09T03:50:29.125Z,238.31
2023-05-09T03:51:32.427Z,289.51
2023-05-09T03:52:35.710Z,245.99
2023-05-09T03:53:38.997Z,263.91
2023-05-09T03:54:42.297Z,258.79
2023-05-09T03:55:45.587Z,240.87
2023-05-09T03:56:47.913Z,222.95
2023-05-09T03:57:51.180Z,158.95
2023-05-09T03:58:54.473Z,97.51
2023-05-09T03:59:57.769Z,102.63
2023-05-09T04:01:01.090Z,84.71
2023-05-09T04:02:04.360Z,61.67
2023-05-09T04:03:08.068Z,100.07
2023-05-09T04:04:11.362Z,94.95
2023-05-09T04:05:14.649Z,82.15
2023-05-09T04:06:17.940Z,46.31
2023-05-09T04:07:21.235Z,64.23
2023-05-09T04:08:24.539Z,87.27
2023-05-09T04:09:27.823Z,64.23
2023-05-09T04:10:30.128Z,25.83
2023-05-09T04:11:33.411Z,-12.58
2023-05-09T04:12:36.695Z,36.07
2023-05-09T04:13:39.993Z,-17.7
2023-05-09T04:14:43.289Z,-15.14
2023-05-09T04:15:46.592Z,20.71
2023-05-09T04:16:49.870Z,-10.02
2023-05-09T04:17:53.165Z,64.23
2023-05-09T04:18:56.480Z,36.07
2023-05-09T04:19:59.758Z,46.31
2023-05-09T04:21:03.063Z,28.39
2023-05-09T04:22:06.375Z,-27.94
2023-05-09T04:23:09.673Z,87.27
2023-05-09T04:24:11.938Z,30.95
2023-05-09T04:25:15.221Z,64.23
2023-05-09T04:26:18.545Z,97.51
2023-05-09T04:27:21.823Z,123.11
2023-05-09T04:28:25.166Z,105.19
2023-05-09T04:29:28.395Z,115.43
2023-05-09T04:30:31.827Z,189.67
2023-05-09T04:31:34.967Z,138.47
2023-05-09T04:32:38.273Z,192.23
2023-05-09T04:33:41.598Z,156.39
2023-05-09T04:34:44.861Z,197.35
2023-05-09T04:35:48.136Z,138.47
2023-05-09T04:36:51.504Z,-299.29
2023-05-09T04:37:53.747Z,202.47
2023-05-09T04:38:57.039Z,222.95
2023-05-09T04:40:00.327Z,148.71
2023-05-09T04:41:03.628Z,82.15
2023-05-09T04:42:06.915Z,66.79
2023-05-09T04:43:10.207Z,100.07
2023-05-09T04:44:13.496Z,61.67
2023-05-09T04:45:16.783Z,153.83
2023-05-09T04:46:20.153Z,117.99
2023-05-09T04:47:23.394Z,61.67
2023-05-09T04:48:26.666Z,92.39
2023-05-09T04:49:30.001Z,18.15
2023-05-09T04:50:33.245Z,84.71
2023-05-09T04:51:35.587Z,53.99
2023-05-09T04:52:38.837Z,46.31
2023-05-09T04:53:42.128Z,41.19
2023-05-09T04:54:45.504Z,18.15
2023-05-09T04:55:48.719Z,-22.82
2023-05-09T04:56:52.025Z,-25.38
2023-05-09T04:57:55.316Z,-10.02
2023-05-09T04:58:58.605Z,23.27
2023-05-09T05:00:01.896Z,2.79
2023-05-09T05:01:05.666Z,18.15
2023-05-09T05:02:08.860Z,51.43
2023-05-09T05:03:12.154Z,94.95
2023-05-09T05:04:15.446Z,153.83
2023-05-09T05:05:17.790Z,102.63
2023-05-09T05:06:21.065Z,115.43
2023-05-09T05:07:24.350Z,153.83
2023-05-09T05:08:27.652Z,202.47
2023-05-09T05:09:30.938Z,135.91
2023-05-09T05:10:34.227Z,110.31
2023-05-09T05:11:37.579Z,125.67
2023-05-09T05:12:40.891Z,125.67
2023-05-09T05:13:44.110Z,181.99
2023-05-09T05:14:47.419Z,215.27
2023-05-09T05:15:50.678Z,194.79
2023-05-09T05:16:53.980Z,197.35
2023-05-09T05:17:57.267Z,225.51
2023-05-09T05:18:59.590Z,235.75
2023-05-09T05:20:02.891Z,212.71
2023-05-09T05:21:06.172Z,-299.29
2023-05-09T05:22:09.454Z,105.19
2023-05-09T05:23:12.741Z,46.31
2023-05-09T05:24:16.067Z,100.07
2023-05-09T05:25:19.343Z,130.79
2023-05-09T05:26:22.694Z,133.35
2023-05-09T05:27:25.919Z,128.23
2023-05-09T05:28:29.233Z,102.63
2023-05-09T05:29:32.487Z,41.19
2023-05-09T05:30:35.789Z,176.87
2023-05-09T05:31:39.090Z,120.55
2023-05-09T05:32:41.458Z,156.39
2023-05-09T05:33:44.699Z,130.79
2023-05-09T05:34:47.986Z,143.59
2023-05-09T05:35:51.273Z,100.07
2023-05-09T05:36:54.591Z,135.91
2023-05-09T05:37:57.843Z,153.83
2023-05-09T05:39:01.140Z,115.43
2023-05-09T05:40:04.424Z,123.11
2023-05-09T05:41:07.725Z,166.63
2023-05-09T05:42:11.025Z,89.83
2023-05-09T05:43:14.304Z,71.91
2023-05-09T05:44:17.596Z,253.67
2023-05-09T05:45:21.004Z,115.43
2023-05-09T05:46:23.195Z,138.47
2023-05-09T05:47:26.605Z,125.67
2023-05-09T05:48:29.866Z,279.27
2023-05-09T05:49:33.165Z,156.39
2023-05-09T05:50:36.414Z,181.99
2023-05-09T05:51:39.670Z,253.67
2023-05-09T05:52:42.961Z,176.87
2023-05-09T05:53:46.241Z,138.47
2023-05-09T05:54:49.544Z,184.55
2023-05-09T05:55:52.834Z,-319.77
2023-05-09T05:56:56.134Z,263.91
2023-05-09T05:57:59.417Z,251.11
2023-05-09T05:59:02.694Z,181.99
2023-05-09T06:00:06.128Z,100.07
2023-05-09T06:01:09.411Z,74.47
2023-05-09T06:02:12.692Z,64.23
2023-05-09T06:03:16.006Z,74.47
2023-05-09T06:04:19.314Z,59.11
2023-05-09T06:05:22.581Z,74.47
2023-05-09T06:06:25.873Z,30.95
2023-05-09T06:07:29.223Z,59.11
2023-05-09T06:08:32.444Z,33.51
2023-05-09T06:09:35.755Z,15.59
2023-05-09T06:10:39.041Z,82.15
2023-05-09T06:11:42.413Z,-30.5
2023-05-09T06:13:48.909Z,-12.58
2023-05-09T06:14:51.227Z,25.83
2023-05-09T06:15:54.545Z,-25.38
2023-05-09T06:16:57.789Z,-4.9
2023-05-09T06:18:01.145Z,-56.1
2023-05-09T06:19:04.404Z,46.31
2023-05-09T06:20:07.678Z,-48.42
2023-05-09T06:21:11.016Z,-71.46
2023-05-09T06:22:14.276Z,-99.62
2023-05-09T06:23:17.544Z,-107.3
2023-05-09T06:24:20.866Z,-104.74
2023-05-09T06:25:24.151Z,-114.98
2023-05-09T06:27:30.716Z,-122.66
2023-05-09T06:28:33.024Z,-79.14
2023-05-09T06:29:36.343Z,-84.26
2023-05-09T06:30:39.607Z,-94.5
2023-05-09T06:31:42.941Z,-94.5
2023-05-09T06:32:46.187Z,-84.26
2023-05-09T06:33:49.497Z,-81.7
2023-05-09T06:34:52.783Z,-109.86
2023-05-09T06:35:56.070Z,-132.9
2023-05-09T06:36:59.353Z,-4.9
2023-05-09T06:38:02.672Z,-63.78
2023-05-09T06:39:06.242Z,-120.1
2023-05-09T06:40:09.525Z,-161.06
2023-05-09T06:41:12.823Z,-155.94
2023-05-09T06:42:15.116Z,0
2023-05-09T06:43:18.434Z,-7.46
2023-05-09T06:44:21.725Z,2.79
2023-05-09T06:46:28.293Z,79.59
2023-05-09T06:47:31.587Z,87.27
2023-05-09T06:48:34.885Z,148.71
2023-05-09T06:49:38.166Z,56.55
2023-05-09T06:50:41.460Z,112.87
2023-05-09T06:51:44.754Z,43.75
2023-05-09T06:52:48.054Z,128.23
2023-05-09T06:53:51.332Z,13.03
2023-05-09T06:54:54.625Z,2.79
2023-05-09T06:55:56.960Z,-20.26
2023-05-09T06:57:00.231Z,7.91
2023-05-09T06:58:03.522Z,-12.58
2023-05-09T06:59:06.810Z,-15.14
2023-05-09T07:00:10.116Z,100.07
2023-05-09T07:01:13.406Z,28.39
2023-05-09T07:02:16.703Z,-25.38
2023-05-09T07:03:19.987Z,28.39
2023-05-09T07:04:23.274Z,15.59
2023-05-09T07:05:26.569Z,-38.18
2023-05-09T07:06:29.861Z,-40.74
2023-05-09T07:07:33.220Z,233.19
2023-05-09T07:08:36.446Z,135.91
2023-05-09T07:09:38.775Z,0.23
2023-05-09T07:10:42.047Z,235.75
2023-05-09T07:11:45.345Z,233.19
2023-05-09T07:12:48.684Z,238.31
2023-05-09T07:13:51.931Z,125.67
2023-05-09T07:14:55.218Z,110.31
2023-05-09T07:15:58.504Z,33.51
2023-05-09T07:17:01.787Z,245.99
2023-05-09T07:18:05.098Z,66.79
2023-05-09T07:19:08.374Z,87.27
2023-05-09T07:20:11.665Z,18.15
2023-05-09T07:21:14.986Z,28.39
2023-05-09T07:22:18.261Z,-20.26
2023-05-09T07:23:20.567Z,-30.5
2023-05-09T07:24:23.881Z,28.39
2023-05-09T07:25:27.141Z,-50.98
2023-05-09T07:26:30.467Z,5.35
2023-05-09T07:27:33.741Z,84.71
2023-05-09T07:28:36.051Z,-25.38
2023-05-09T07:29:39.331Z,38.63
2023-05-09T07:30:42.628Z,10.47
2023-05-09T07:31:45.933Z,33.51
2023-05-09T07:32:49.219Z,-20.26
2023-05-09T07:33:52.507Z,10.47
2023-05-09T07:34:55.807Z,20.71
2023-05-09T07:35:59.092Z,-43.3
2023-05-09T07:37:02.377Z,-61.22
2023-05-09T07:38:05.689Z,-89.38
2023-05-09T07:39:08.961Z,13.03
2023-05-09T07:40:12.533Z,184.55
2023-05-09T07:41:15.836Z,25.83
2023-05-09T07:42:18.145Z,-104.74
2023-05-09T07:43:21.425Z,-4.9
2023-05-09T07:44:24.715Z,-22.82
2023-05-09T07:45:28.014Z,-91.94
2023-05-09T07:46:31.295Z,-104.74
2023-05-09T07:47:34.661Z,-125.22
2023-05-09T07:48:37.888Z,-104.74
2023-05-09T07:49:41.175Z,-120.1
2023-05-09T07:50:44.467Z,-94.5
2023-05-09T07:51:47.764Z,-94.5
2023-05-09T07:52:51.067Z,-107.3
2023-05-09T07:53:54.331Z,-81.7
2023-05-09T07:54:57.627Z,-120.1
2023-05-09T07:55:59.936Z,-63.78
2023-05-09T07:57:03.226Z,-86.82
2023-05-09T07:58:06.694Z,-120.1
2023-05-09T07:59:09.949Z,7.91
2023-05-09T08:00:13.257Z,-76.58
2023-05-09T08:01:16.543Z,-104.74
2023-05-09T08:02:19.830Z,-112.42
2023-05-09T08:03:23.110Z,-25.38
2023-05-09T08:04:26.386Z,-104.74
2023-05-09T08:05:29.709Z,-112.42
2023-05-09T08:06:32.989Z,-99.62
2023-05-09T08:07:36.261Z,-127.78
2023-05-09T08:08:39.574Z,-132.9
2023-05-09T08:09:41.887Z,0
2023-05-09T08:10:45.161Z,-176.42
2023-05-09T08:11:48.460Z,-181.54
2023-05-09T08:12:51.753Z,-204.58
2023-05-09T08:13:55.041Z,-212.26
2023-05-09T08:14:58.337Z,-207.14
2023-05-09T08:16:01.634Z,-219.94
2023-05-09T08:17:04.933Z,-219.94
2023-05-09T08:18:08.225Z,-232.74
2023-05-09T08:19:11.518Z,-207.14
2023-05-09T08:20:14.803Z,-212.26
2023-05-09T08:21:18.091Z,-202.02
2023-05-09T08:22:21.391Z,-209.7
2023-05-09T08:23:23.709Z,-240.42
2023-05-09T08:24:26.994Z,-245.54
2023-05-09T08:25:30.275Z,-248.1
2023-05-09T08:26:33.582Z,-209.7
2023-05-09T08:27:36.953Z,-227.62
2023-05-09T08:28:40.159Z,-250.66
2023-05-09T08:29:43.470Z,-235.3
2023-05-09T08:30:46.744Z,-258.34
2023-05-09T08:31:50.028Z,-263.46
2023-05-09T08:32:53.325Z,-273.7
2023-05-09T08:33:56.613Z,-278.82
2023-05-09T08:34:59.920Z,-240.42
2023-05-09T08:36:03.248Z,-237.86
2023-05-09T08:37:05.538Z,-309.54
2023-05-09T08:38:08.805Z,-301.86
2023-05-09T08:39:12.092Z,-158.5
2023-05-09T08:40:15.372Z,89.83
2023-05-09T08:41:18.689Z,-63.78
2023-05-09T08:42:21.972Z,-168.74
2023-05-09T08:43:25.258Z,-184.1
2023-05-09T08:44:28.544Z,-155.94
2023-05-09T08:45:31.845Z,-153.38
2023-05-09T08:46:35.147Z,-186.66
2023-05-09T08:47:38.431Z,-202.02
2023-05-09T08:48:41.710Z,-184.1
2023-05-09T08:49:45.014Z,-186.66
2023-05-09T08:50:47.334Z,-194.34
2023-05-09T08:51:50.642Z,-171.3
2023-05-09T08:52:54.022Z,-117.54
2023-05-09T08:53:57.226Z,-166.18
2023-05-09T08:55:00.484Z,-150.82
2023-05-09T08:56:03.803Z,-56.1
2023-05-09T08:57:07.072Z,-138.02
2023-05-09T08:58:10.377Z,-163.62
2023-05-09T08:59:13.665Z,-166.18
2023-05-09T09:00:16.948Z,-186.66
2023-05-09T09:01:20.337Z,-204.58
2023-05-09T09:02:23.649Z,-140.58
2023-05-09T09:03:26.821Z,46.31
2023-05-09T09:04:29.140Z,46.31
2023-05-09T09:05:32.416Z,94.95
2023-05-09T09:06:35.709Z,13.03
2023-05-09T09:07:39.003Z,105.19
2023-05-09T09:08:42.318Z,77.03
2023-05-09T09:09:45.588Z,48.87
2023-05-09T09:10:48.950Z,43.75
2023-05-09T09:11:52.229Z,89.83
2023-05-09T09:12:55.470Z,100.07
2023-05-09T09:13:58.813Z,197.35
2023-05-09T09:15:02.141Z,197.35
2023-05-09T09:16:05.350Z,94.95
2023-05-09T09:17:08.629Z,107.75
2023-05-09T09:18:10.959Z,181.99
2023-05-09T09:19:14.228Z,117.99
2023-05-09T09:20:17.532Z,135.91
2023-05-09T09:21:20.837Z,210.15
2023-05-09T09:22:24.104Z,97.51
2023-05-09T09:23:27.422Z,77.03
2023-05-09T09:24:30.717Z,59.11
2023-05-09T09:25:33.989Z,153.83
2023-05-09T09:26:37.321Z,18.15
2023-05-09T09:27:40.638Z,87.27
2023-05-09T09:28:43.866Z,-22.82
2023-05-09T09:29:47.175Z,107.75
2023-05-09T09:30:50.465Z,-53.54
2023-05-09T09:31:52.740Z,-7.46
2023-05-09T09:32:56.062Z,-43.3
2023-05-09T09:33:59.346Z,43.75
2023-05-09T09:35:02.640Z,-10.02
2023-05-09T09:36:05.932Z,-109.86
2023-05-09T09:37:09.209Z,-76.58
2023-05-09T09:38:12.520Z,-84.26
2023-05-09T09:39:15.860Z,-68.9
2023-05-09T09:40:19.105Z,-79.14
2023-05-09T09:41:22.392Z,-117.54
2023-05-09T09:42:25.684Z,-186.66
2023-05-09T09:43:28.981Z,-178.98
2023-05-09T09:44:32.269Z,-161.06
2023-05-09T09:45:34.570Z,-191.78
2023-05-09T09:46:37.861Z,-217.38
2023-05-09T09:47:41.182Z,-222.5
2023-05-09T09:48:44.458Z,-191.78
2023-05-09T09:49:47.800Z,-237.86
2023-05-09T09:50:51.057Z,-191.78
2023-05-09T09:51:54.319Z,-186.66
2023-05-09T09:52:57.648Z,-189.22
2023-05-09T09:54:00.928Z,-125.22
2023-05-09T09:55:04.192Z,-186.66
2023-05-09T09:56:07.492Z,-104.74
2023-05-09T09:57:10.787Z,141.03
2023-05-09T09:58:14.084Z,230.63
2023-05-09T09:59:16.383Z,-163.62
2023-05-09T10:00:19.674Z,-212.26
2023-05-09T10:01:22.969Z,-278.82
2023-05-09T10:02:26.247Z,-294.18
2023-05-09T10:03:29.552Z,-266.02
2023-05-09T10:04:32.849Z,-258.34
2023-05-09T10:05:36.121Z,-158.5
2023-05-09T10:06:39.441Z,-189.22
2023-05-09T10:07:42.717Z,-161.06
2023-05-09T10:08:46.108Z,-153.38
2023-05-09T10:09:49.308Z,-227.62
2023-05-09T10:10:52.579Z,-235.3
2023-05-09T10:11:55.896Z,-230.18
2023-05-09T10:12:58.194Z,-319.78
2023-05-09T10:14:01.484Z,322.78
2023-05-09T10:15:04.778Z,-283.94
2023-05-09T10:16:08.137Z,-281.38
2023-05-09T10:17:11.432Z,-281.38
2023-05-09T10:18:14.694Z,-194.34
2023-05-09T10:19:17.958Z,-181.54
2023-05-09T10:20:21.245Z,-222.5
2023-05-09T10:21:24.658Z,-186.66
2023-05-09T10:22:27.972Z,-222.5
2023-05-09T10:23:31.265Z,-230.18
2023-05-09T10:24:34.460Z,-222.5
2023-05-09T10:25:37.841Z,-260.9
2023-05-09T10:26:40.005Z,-266.02
2023-05-09T10:27:43.425Z,-255.78
2023-05-09T10:28:46.768Z,-109.86
2023-05-09T10:29:49.988Z,-145.7
2023-05-09T10:30:53.328Z,-242.98
2023-05-09T10:31:56.676Z,-250.66
2023-05-09T10:32:59.903Z,-301.86
2023-05-09T10:34:03.040Z,315.1
2023-05-09T10:35:06.455Z,-306.98
2023-05-09T10:36:09.761Z,-319.78
2023-05-09T10:37:13.076Z,-273.7
2023-05-09T10:38:16.363Z,-260.9
2023-05-09T10:39:19.492Z,-212.26
2023-05-09T10:40:21.942Z,-301.86
2023-05-09T10:41:25.264Z,276.7
2023-05-09T10:42:28.428Z,-255.78
2023-05-09T10:43:31.734Z,-127.78
2023-05-09T10:44:35.027Z,-48.42
2023-05-09T10:45:38.342Z,43.75
2023-05-09T10:46:41.686Z,13.03
2023-05-09T10:47:44.919Z,-48.42
2023-05-09T10:48:48.263Z,-99.62
2023-05-09T10:49:51.553Z,-12.58
2023-05-09T10:50:54.893Z,-132.9
2023-05-09T10:51:58.211Z,-61.22
2023-05-09T10:53:01.309Z,-112.42
2023-05-09T10:54:03.763Z,-222.5
2023-05-09T10:55:06.965Z,-186.66
2023-05-09T10:56:10.315Z,-107.3
2023-05-09T10:57:13.839Z,-143.14
2023-05-09T10:58:17.118Z,-148.26
2023-05-09T10:59:20.500Z,-56.1
2023-05-09T11:00:22.813Z,-138.02
2023-05-09T11:01:26.046Z,-79.14
2023-05-09T11:02:29.332Z,-163.62
2023-05-09T11:03:32.680Z,-189.22
2023-05-09T11:04:36.063Z,-166.18
2023-05-09T11:05:39.350Z,-140.58
2023-05-09T11:06:42.620Z,-161.06
2023-05-09T11:07:45.776Z,-76.58
2023-05-09T11:08:49.078Z,36.07
2023-05-09T11:09:52.521Z,48.87
2023-05-09T11:10:55.692Z,210.15
2023-05-09T11:11:59.007Z,274.15
2023-05-09T11:13:02.308Z,240.87
2023-05-09T11:14:04.637Z,269.03
2023-05-09T11:15:07.862Z,302.31
2023-05-09T11:16:11.132Z,-312.09
2023-05-09T11:17:14.572Z,222.95
2023-05-09T11:18:17.800Z,120.55
2023-05-09T11:19:21.017Z,-260.89
2023-05-09T11:20:24.298Z,266.47
2023-05-09T11:21:27.601Z,161.51
2023-05-09T11:22:30.922Z,187.11
2023-05-09T11:23:34.272Z,292.07
2023-05-09T11:24:37.465Z,189.67
2023-05-09T11:25:40.792Z,-10.02
2023-05-09T11:26:44.086Z,46.31
2023-05-09T11:27:46.442Z,141.03
2023-05-09T11:28:49.670Z,94.95
2023-05-09T11:29:53.109Z,-7.46
2023-05-09T11:30:56.427Z,220.39
2023-05-09T11:31:59.665Z,284.39
2023-05-09T11:33:03.042Z,179.43
2023-05-09T11:34:06.269Z,158.95
2023-05-09T11:35:09.548Z,112.87
2023-05-09T11:36:12.903Z,202.47
2023-05-09T11:37:16.141Z,89.83
2023-05-09T11:38:19.470Z,146.15
2023-05-09T11:39:22.689Z,-289.05
2023-05-09T11:40:26.022Z,228.07
2023-05-09T11:41:28.172Z,233.19
2023-05-09T11:42:31.517Z,228.07
2023-05-09T11:43:34.840Z,169.19
2023-05-09T11:44:38.166Z,130.79
2023-05-09T11:45:41.532Z,166.63
2023-05-09T11:46:44.837Z,212.71
2023-05-09T11:47:48.079Z,51.43
2023-05-09T11:48:51.378Z,169.19
2023-05-09T11:49:54.589Z,69.35
2023-05-09T11:50:57.899Z,43.75
2023-05-09T11:52:01.108Z,153.83
2023-05-09T11:53:04.396Z,89.83
2023-05-09T11:54:08.086Z,66.79
2023-05-09T11:55:10.368Z,59.11
2023-05-09T11:56:14.085Z,92.39
2023-05-09T11:57:17.361Z,56.55
2023-05-09T11:58:20.732Z,-66.34
2023-05-09T11:59:24.061Z,-79.14
2023-05-09T12:00:27.316Z,-161.06
2023-05-09T12:01:30.600Z,-181.54
2023-05-09T12:02:33.981Z,-214.82
2023-05-09T12:03:37.285Z,-217.38
2023-05-09T12:04:40.450Z,-306.98
2023-05-09T12:05:43.779Z,-309.54
2023-05-09T12:06:46.979Z,269.02
2023-05-09T12:07:50.311Z,292.06
2023-05-09T12:08:52.595Z,235.74
2023-05-09T12:09:55.892Z,220.38
2023-05-09T12:10:59.211Z,220.38
2023-05-09T12:12:02.474Z,235.74
2023-05-09T12:13:05.918Z,202.46
2023-05-09T12:14:09.237Z,184.54
2023-05-09T12:15:12.341Z,148.7
2023-05-09T12:16:15.708Z,128.22
2023-05-09T12:17:19.045Z,123.1
2023-05-09T12:18:22.404Z,102.62
2023-05-09T12:19:25.569Z,130.78
2023-05-09T12:20:28.919Z,102.62
2023-05-09T12:21:32.073Z,110.3
2023-05-09T12:22:34.413Z,89.82
2023-05-09T12:23:37.832Z,120.54
2023-05-09T12:24:41.000Z,107.74
2023-05-09T12:25:44.285Z,66.78
2023-05-09T12:26:47.636Z,51.42
2023-05-09T12:27:50.869Z,13.02
2023-05-09T12:28:54.230Z,13.02
2023-05-09T12:29:57.480Z,25.82
2023-05-09T12:31:00.804Z,48.86
2023-05-09T12:32:04.038Z,51.42
2023-05-09T12:33:07.351Z,28.38
2023-05-09T12:34:10.731Z,20.7
2023-05-09T12:35:14.538Z,13.02
2023-05-09T12:36:16.811Z,-40.75
2023-05-09T12:37:20.109Z,-12.59
2023-05-09T12:38:23.441Z,-4.91
2023-05-09T12:39:26.653Z,2.78
2023-05-09T12:40:29.990Z,5.34
2023-05-09T12:41:33.294Z,-4.91
2023-05-09T12:42:36.537Z,-38.19
2023-05-09T12:43:39.960Z,-38.19
2023-05-09T12:44:43.227Z,-43.31
2023-05-09T12:45:46.398Z,-43.31
2023-05-09T12:46:49.837Z,-45.87
2023-05-09T12:47:53.130Z,-63.79
2023-05-09T12:48:56.281Z,-50.99
2023-05-09T12:49:58.759Z,-58.67
2023-05-09T12:51:01.882Z,-58.67
2023-05-09T12:52:05.183Z,-61.23
2023-05-09T12:53:08.552Z,-76.59
2023-05-09T12:54:11.809Z,-56.11
2023-05-09T12:55:15.249Z,-56.11
2023-05-09T12:56:18.497Z,-63.79
2023-05-09T12:57:21.758Z,-25.39
2023-05-09T12:58:25.076Z,-38.19
2023-05-09T12:59:28.388Z,-27.95
2023-05-09T13:00:31.513Z,-38.19
2023-05-09T13:01:34.806Z,-43.31
2023-05-09T13:02:38.219Z,-40.75
2023-05-09T13:03:40.438Z,-53.55
2023-05-09T13:04:43.683Z,-50.99
2023-05-09T13:05:47.003Z,-45.87
2023-05-09T13:06:50.288Z,-40.75
2023-05-09T13:07:53.587Z,-50.99
2023-05-09T13:08:56.866Z,-33.07
2023-05-09T13:10:00.193Z,-43.31
2023-05-09T13:11:03.439Z,-48.43
2023-05-09T13:12:06.728Z,-79.15
2023-05-09T13:13:10.036Z,-53.55
2023-05-09T13:14:13.444Z,-94.51
2023-05-09T13:15:16.659Z,-97.07
2023-05-09T13:16:19.909Z,-56.11
2023-05-09T13:17:22.215Z,-81.71
2023-05-09T13:18:25.509Z,-76.59
2023-05-09T13:19:28.812Z,-58.67